createdAt,value
2018-01-27T00:01:02.324Z,11.38
2018-01-27T00:03:30.662Z,12.92
2018-01-27T00:05:58.974Z,10.60
2018-01-27T00:08:27.315Z,9.83
2018-01-27T00:10:55.633Z,8.50
2018-01-27T00:13:23.963Z,8.35
2018-01-27T00:15:52.291Z,15.88
2018-01-27T00:18:20.626Z,12.58
2018-01-27T00:20:48.938Z,12.12
2018-01-27T00:23:17.278Z,10.53
2018-01-27T00:25:45.598Z,11.03
2018-01-27T00:28:13.925Z,8.08
2018-01-27T00:30:42.241Z,11.58
2018-01-27T00:33:10.566Z,9.92
2018-01-27T00:35:38.870Z,8.28
2018-01-27T00:38:07.200Z,8.55
2018-01-27T00:40:35.514Z,11.15
2018-01-27T00:43:03.827Z,9.10
2018-01-27T00:45:32.167Z,10.03
2018-01-27T00:48:00.474Z,9.48
2018-01-27T00:50:28.802Z,11.13
2018-01-27T00:52:57.105Z,10.05
2018-01-27T00:55:25.443Z,9.12
2018-01-27T00:57:53.754Z,9.63
2018-01-27T01:00:22.094Z,9.08
2018-01-27T01:02:50.410Z,8.95
2018-01-27T01:05:18.746Z,9.65
2018-01-27T01:07:47.058Z,9.38
2018-01-27T01:10:15.396Z,9.03
2018-01-27T01:12:43.706Z,8.92
2018-01-27T01:15:12.027Z,9.62
2018-01-27T01:17:40.342Z,9.72
2018-01-27T01:20:08.681Z,8.75
2018-01-27T01:22:36.983Z,8.78
2018-01-27T01:25:05.319Z,9.18
2018-01-27T01:27:33.630Z,9.68
2018-01-27T01:30:01.957Z,8.63
2018-01-27T01:32:30.267Z,8.18
2018-01-27T01:34:58.604Z,8.65
2018-01-27T01:37:26.926Z,8.78
2018-01-27T01:39:55.255Z,9.28
2018-01-27T01:42:29.371Z,9.02
2018-01-27T01:44:57.723Z,10.27
2018-01-27T01:47:26.042Z,10.20
2018-01-27T01:49:54.378Z,10.05
2018-01-27T01:52:22.687Z,8.98
2018-01-27T01:54:51.028Z,10.47
2018-01-27T01:57:19.341Z,9.88
2018-01-27T01:59:47.677Z,9.60
2018-01-27T02:02:15.987Z,9.13
2018-01-27T02:04:44.324Z,9.22
2018-01-27T02:07:12.631Z,9.03
2018-01-27T02:09:40.964Z,9.78
2018-01-27T02:12:09.271Z,9.78
2018-01-27T02:14:37.582Z,9.20
2018-01-27T02:17:05.923Z,12.45
2018-01-27T02:19:34.243Z,11.48
2018-01-27T02:22:02.582Z,11.08
2018-01-27T02:24:30.898Z,10.55
2018-01-27T02:26:59.234Z,7.68
2018-01-27T02:29:27.542Z,11.25
2018-01-27T02:31:55.867Z,9.68
2018-01-27T02:34:24.184Z,8.98
2018-01-27T02:36:52.520Z,11.27
2018-01-27T02:39:20.834Z,11.02
2018-01-27T02:41:49.159Z,7.67
2018-01-27T02:44:16.704Z,9.82
2018-01-27T02:46:45.048Z,11.95
2018-01-27T02:49:13.388Z,10.92
2018-01-27T02:51:41.727Z,8.57
2018-01-27T02:54:10.039Z,9.12
2018-01-27T02:56:38.367Z,10.08
2018-01-27T02:59:06.674Z,11.10
2018-01-27T03:01:35.001Z,9.97
2018-01-27T03:04:03.320Z,8.62
2018-01-27T03:06:31.655Z,9.90
2018-01-27T03:08:59.969Z,9.03
2018-01-27T03:11:28.302Z,8.93
2018-01-27T03:13:56.620Z,10.47
2018-01-27T03:16:24.950Z,9.43
2018-01-27T03:18:53.269Z,9.00
2018-01-27T03:21:21.602Z,9.45
2018-01-27T03:23:49.921Z,9.70
2018-01-27T03:26:18.255Z,10.92
2018-01-27T03:28:46.570Z,10.00
2018-01-27T03:31:14.910Z,10.12
2018-01-27T03:33:43.229Z,10.68
2018-01-27T03:36:11.562Z,10.00
2018-01-27T03:38:39.877Z,11.78
2018-01-27T03:41:08.238Z,11.20
2018-01-27T03:43:36.550Z,9.72
2018-01-27T03:46:04.878Z,9.85
2018-01-27T03:48:33.188Z,11.25
2018-01-27T03:51:01.535Z,10.52
2018-01-27T03:53:29.852Z,10.15
2018-01-27T03:55:58.194Z,10.55
2018-01-27T03:58:26.508Z,10.20
2018-01-27T04:00:54.838Z,11.43
2018-01-27T04:03:23.172Z,11.13
2018-01-27T04:05:51.483Z,10.88
2018-01-27T04:08:19.815Z,9.02
2018-01-27T04:10:48.119Z,11.38
2018-01-27T04:13:16.463Z,11.05
2018-01-27T04:15:44.772Z,10.60
2018-01-27T04:18:13.139Z,9.08
2018-01-27T04:20:41.455Z,8.93
2018-01-27T04:23:09.800Z,10.77
2018-01-27T04:25:38.136Z,10.88
2018-01-27T04:28:06.471Z,11.47
2018-01-27T04:30:34.815Z,12.78
2018-01-27T04:33:03.138Z,9.67
2018-01-27T04:35:31.457Z,9.40
2018-01-27T04:37:59.793Z,11.12
2018-01-27T04:40:28.102Z,11.88
2018-01-27T04:42:56.434Z,9.47
2018-01-27T04:45:24.762Z,11.98
2018-01-27T04:47:53.102Z,10.13
2018-01-27T04:50:21.410Z,10.82
2018-01-27T04:52:49.742Z,10.60
2018-01-27T04:55:18.047Z,10.47
2018-01-27T04:57:46.388Z,12.08
2018-01-27T05:00:14.704Z,14.43
2018-01-27T05:02:43.055Z,12.25
2018-01-27T05:05:11.361Z,11.18
2018-01-27T05:07:39.703Z,11.40
2018-01-27T05:10:08.016Z,12.10
2018-01-27T05:12:36.348Z,9.07
2018-01-27T05:15:04.656Z,9.83
2018-01-27T05:17:32.986Z,11.97
2018-01-27T05:20:01.303Z,8.95
2018-01-27T05:22:28.866Z,9.53
2018-01-27T05:24:57.183Z,10.02
2018-01-27T05:27:25.525Z,10.25
2018-01-27T05:29:53.846Z,10.35
2018-01-27T05:32:22.185Z,11.13
2018-01-27T05:34:50.495Z,9.18
2018-01-27T05:37:18.835Z,8.70
2018-01-27T05:39:47.166Z,8.70
2018-01-27T05:42:15.475Z,9.12
2018-01-27T05:44:43.814Z,9.55
2018-01-27T05:47:12.135Z,9.28
2018-01-27T05:49:40.473Z,9.63
2018-01-27T05:52:08.776Z,9.63
2018-01-27T05:54:37.155Z,9.78
2018-01-27T05:57:05.458Z,10.05
2018-01-27T05:59:33.795Z,8.43
2018-01-27T06:02:02.127Z,7.98
2018-01-27T06:04:30.464Z,9.47
2018-01-27T06:06:58.774Z,8.43
2018-01-27T06:09:27.103Z,11.27
2018-01-27T06:11:55.422Z,11.75
2018-01-27T06:14:23.763Z,12.22
2018-01-27T06:16:52.077Z,12.22
2018-01-27T06:19:20.419Z,11.68
2018-01-27T06:21:48.750Z,11.53
2018-01-27T06:24:17.091Z,12.18
2018-01-27T06:26:45.408Z,10.75
2018-01-27T06:29:13.738Z,11.93
2018-01-27T06:31:42.051Z,10.52
2018-01-27T06:34:10.386Z,11.12
2018-01-27T06:36:38.702Z,9.93
2018-01-27T06:39:07.043Z,10.95
2018-01-27T06:41:35.354Z,11.30
2018-01-27T06:44:03.696Z,11.42
2018-01-27T06:46:32.016Z,11.13
2018-01-27T06:49:00.342Z,10.33
2018-01-27T06:51:28.666Z,12.37
2018-01-27T06:53:57.001Z,12.13
2018-01-27T06:56:25.315Z,17.68
2018-01-27T06:58:53.654Z,15.48
2018-01-27T07:01:21.963Z,11.22
2018-01-27T07:03:50.307Z,10.70
2018-01-27T07:06:18.624Z,11.45
2018-01-27T07:08:46.972Z,13.23
2018-01-27T07:11:15.291Z,13.58
2018-01-27T07:13:43.618Z,12.78
2018-01-27T07:16:11.936Z,19.27
2018-01-27T07:18:40.250Z,15.37
2018-01-27T07:21:08.591Z,14.48
2018-01-27T07:23:36.902Z,15.10
2018-01-27T07:26:05.238Z,13.35
2018-01-27T07:28:33.556Z,26.85
2018-01-27T07:31:01.888Z,20.58
2018-01-27T07:33:30.215Z,14.35
2018-01-27T07:35:58.555Z,15.37
2018-01-27T07:38:26.107Z,16.53
2018-01-27T07:40:54.447Z,21.70
2018-01-27T07:43:22.762Z,18.72
2018-01-27T07:45:51.095Z,18.73
2018-01-27T07:48:19.413Z,16.32
2018-01-27T07:50:47.743Z,17.02
2018-01-27T07:53:16.053Z,21.18
2018-01-27T07:55:44.396Z,15.77
2018-01-27T07:58:12.713Z,13.87
2018-01-27T08:00:41.060Z,12.93
2018-01-27T08:03:09.391Z,12.67
2018-01-27T08:05:37.752Z,11.52
2018-01-27T08:08:06.067Z,12.63
2018-01-27T08:10:34.467Z,11.55
2018-01-27T08:13:02.782Z,14.72
2018-01-27T08:15:31.114Z,15.05
2018-01-27T08:17:59.438Z,14.42
2018-01-27T08:20:27.782Z,15.63
2018-01-27T08:22:56.106Z,15.55
2018-01-27T08:25:24.441Z,12.65
2018-01-27T08:27:52.760Z,13.12
2018-01-27T08:30:21.094Z,16.13
2018-01-27T08:32:49.403Z,15.18
2018-01-27T08:35:17.746Z,15.95
2018-01-27T08:37:46.067Z,14.15
2018-01-27T08:40:14.392Z,14.10
2018-01-27T08:42:42.708Z,14.15
2018-01-27T08:45:11.044Z,16.13
2018-01-27T08:47:39.360Z,15.08
2018-01-27T08:50:07.700Z,19.97
2018-01-27T08:52:36.017Z,15.68
2018-01-27T08:55:04.351Z,16.58
2018-01-27T08:57:32.679Z,14.68
2018-01-27T09:00:00.990Z,14.53
2018-01-27T09:02:29.319Z,14.55
2018-01-27T09:04:57.626Z,15.68
2018-01-27T09:07:25.966Z,14.50
2018-01-27T09:09:54.275Z,14.58
2018-01-27T09:12:22.604Z,15.48
2018-01-27T09:14:50.926Z,15.37
2018-01-27T09:17:19.263Z,16.65
2018-01-27T09:19:47.580Z,19.23
2018-01-27T09:22:15.921Z,26.83
2018-01-27T09:24:44.230Z,40.57
2018-01-27T09:27:12.563Z,51.95
2018-01-27T09:29:40.870Z,53.97
2018-01-27T09:32:09.206Z,25.62
2018-01-27T09:34:37.520Z,19.35
2018-01-27T09:37:05.862Z,20.67
2018-01-27T09:39:34.171Z,20.88
2018-01-27T09:42:02.511Z,21.33
2018-01-27T09:44:30.826Z,22.18
2018-01-27T09:46:59.155Z,20.68
2018-01-27T09:49:27.462Z,21.10
2018-01-27T09:51:55.814Z,20.60
2018-01-27T09:54:24.130Z,32.97
2018-01-27T09:56:51.705Z,22.25
2018-01-27T09:59:20.019Z,18.35
2018-01-27T10:01:48.515Z,22.50
2018-01-27T10:04:16.831Z,21.95
2018-01-27T10:06:45.170Z,16.65
2018-01-27T10:09:13.487Z,14.48
2018-01-27T10:11:41.822Z,15.25
2018-01-27T10:14:10.139Z,13.33
2018-01-27T10:16:38.480Z,13.28
2018-01-27T10:19:06.795Z,11.38
2018-01-27T10:21:35.123Z,28.13
2018-01-27T10:24:03.448Z,18.48
2018-01-27T10:26:31.782Z,14.38
2018-01-27T10:29:00.114Z,29.33
2018-01-27T10:31:28.456Z,14.12
2018-01-27T10:33:56.770Z,14.20
2018-01-27T10:36:25.113Z,12.92
2018-01-27T10:38:53.434Z,13.95
2018-01-27T10:41:21.748Z,11.23
2018-01-27T10:43:50.084Z,11.87
2018-01-27T10:46:18.402Z,12.57
2018-01-27T10:48:46.743Z,13.07
2018-01-27T10:51:15.067Z,12.73
2018-01-27T10:53:43.405Z,11.43
2018-01-27T10:56:11.720Z,10.42
2018-01-27T10:58:40.060Z,10.33
2018-01-27T11:01:08.382Z,12.33
2018-01-27T11:03:36.779Z,12.55
2018-01-27T11:06:05.098Z,12.12
2018-01-27T11:08:33.463Z,11.32
2018-01-27T11:11:01.789Z,12.93
2018-01-27T11:13:30.127Z,10.88
2018-01-27T11:15:58.448Z,11.70
2018-01-27T11:18:26.780Z,10.70
2018-01-27T11:20:55.098Z,11.15
2018-01-27T11:23:23.440Z,11.20
2018-01-27T11:25:51.755Z,11.03
2018-01-27T11:28:20.099Z,10.07
2018-01-27T11:30:48.423Z,11.02
2018-01-27T11:33:16.762Z,12.00
2018-01-27T11:35:45.080Z,10.70
2018-01-27T11:38:13.435Z,10.70
2018-01-27T11:40:41.762Z,8.83
2018-01-27T11:43:10.095Z,10.22
2018-01-27T11:45:38.406Z,8.93
2018-01-27T11:48:06.744Z,8.03
2018-01-27T11:50:35.067Z,8.50
2018-01-27T11:53:03.404Z,9.38
2018-01-27T11:55:31.726Z,7.52
2018-01-27T11:58:00.069Z,7.35
2018-01-27T12:00:28.384Z,5.48
2018-01-27T12:02:56.727Z,5.63
2018-01-27T12:05:25.058Z,7.58
2018-01-27T12:07:53.403Z,5.65
2018-01-27T12:10:21.720Z,5.87
2018-01-27T12:12:50.055Z,6.05
2018-01-27T12:15:18.379Z,6.78
2018-01-27T12:17:45.971Z,5.78
2018-01-27T12:20:14.310Z,6.10
2018-01-27T12:22:42.635Z,5.42
2018-01-27T12:25:10.970Z,7.78
2018-01-27T12:27:39.304Z,7.37
2018-01-27T12:30:07.659Z,8.68
2018-01-27T12:32:35.995Z,9.70
2018-01-27T12:35:04.333Z,8.30
2018-01-27T12:37:32.657Z,7.83
2018-01-27T12:40:01.012Z,8.80
2018-01-27T12:42:29.340Z,6.67
2018-01-27T12:44:57.690Z,7.24
2018-01-27T12:47:26.010Z,5.63
2018-01-27T12:49:54.365Z,6.78
2018-01-27T12:52:22.684Z,5.97
2018-01-27T12:54:51.023Z,11.40
2018-01-27T12:57:19.334Z,11.45
2018-01-27T12:59:47.680Z,11.23
2018-01-27T13:02:16.002Z,6.97
2018-01-27T13:04:44.343Z,5.67
2018-01-27T13:07:12.663Z,9.13
2018-01-27T13:09:41.006Z,9.08
2018-01-27T13:12:09.322Z,14.30
2018-01-27T13:14:37.671Z,5.46
2018-01-27T13:17:06.009Z,11.05
2018-01-27T13:19:34.365Z,6.48
2018-01-27T13:22:02.686Z,24.82
2018-01-27T13:24:31.039Z,6.68
2018-01-27T13:26:59.361Z,11.43
2018-01-27T13:29:27.708Z,8.23
2018-01-27T13:31:56.047Z,5.58
2018-01-27T13:34:24.395Z,5.38
2018-01-27T13:36:52.730Z,9.17
2018-01-27T13:39:21.093Z,15.98
2018-01-27T13:41:49.404Z,9.64
2018-01-27T13:44:17.753Z,7.67
2018-01-27T13:46:46.076Z,10.36
2018-01-27T13:49:14.416Z,13.55
2018-01-27T13:51:42.743Z,8.53
2018-01-27T13:54:11.087Z,9.42
2018-01-27T13:56:39.412Z,6.28
2018-01-27T13:59:07.730Z,7.53
2018-01-27T14:01:36.064Z,5.58
2018-01-27T14:04:04.385Z,6.72
2018-01-27T14:06:32.727Z,7.48
2018-01-27T14:09:01.355Z,6.17
2018-01-27T14:11:29.700Z,6.78
2018-01-27T14:13:58.063Z,6.27
2018-01-27T14:16:26.392Z,6.83
2018-01-27T14:18:54.726Z,9.85
2018-01-27T14:21:23.078Z,10.10
2018-01-27T14:23:51.393Z,7.97
2018-01-27T14:26:19.732Z,7.92
2018-01-27T14:28:48.059Z,16.05
2018-01-27T14:31:16.392Z,9.47
2018-01-27T14:33:44.711Z,7.83
2018-01-27T14:36:13.051Z,7.43
2018-01-27T14:38:41.362Z,8.32
2018-01-27T14:41:09.698Z,7.22
2018-01-27T14:43:38.023Z,7.75
2018-01-27T14:46:06.361Z,7.60
2018-01-27T14:48:34.668Z,7.25
2018-01-27T14:51:03.005Z,6.62
2018-01-27T14:53:31.319Z,7.08
2018-01-27T14:55:59.668Z,7.37
2018-01-27T14:58:27.983Z,6.67
2018-01-27T15:00:56.317Z,6.60
2018-01-27T15:03:24.634Z,7.32
2018-01-27T15:05:52.966Z,7.82
2018-01-27T15:08:21.288Z,7.38
2018-01-27T15:10:49.627Z,6.83
2018-01-27T15:13:17.945Z,7.90
2018-01-27T15:15:46.280Z,8.70
2018-01-27T15:18:13.851Z,8.63
2018-01-27T15:20:42.186Z,6.97
2018-01-27T15:23:10.497Z,8.53
2018-01-27T15:25:38.826Z,7.80
2018-01-27T15:28:07.159Z,8.68
2018-01-27T15:30:35.494Z,8.12
2018-01-27T15:33:03.822Z,7.20
2018-01-27T15:35:32.163Z,9.03
2018-01-27T15:38:00.479Z,8.70
2018-01-27T15:40:28.792Z,7.42
2018-01-27T15:42:57.157Z,8.85
2018-01-27T15:45:25.479Z,7.58
2018-01-27T15:47:53.807Z,7.40
2018-01-27T15:50:22.123Z,8.30
2018-01-27T15:52:50.480Z,10.70
2018-01-27T15:55:18.787Z,14.32
2018-01-27T15:57:47.122Z,29.05
2018-01-27T16:00:15.445Z,11.60
2018-01-27T16:02:43.785Z,23.45
2018-01-27T16:05:12.103Z,9.85
2018-01-27T16:07:40.438Z,9.88
2018-01-27T16:10:08.759Z,8.02
2018-01-27T16:12:37.090Z,8.60
2018-01-27T16:15:05.417Z,8.02
2018-01-27T16:17:33.768Z,8.30
2018-01-27T16:20:02.092Z,8.88
2018-01-27T16:22:30.432Z,11.92
2018-01-27T16:24:58.782Z,9.98
2018-01-27T16:27:27.128Z,23.02
2018-01-27T16:29:55.451Z,11.95
2018-01-27T16:32:23.791Z,12.22
2018-01-27T16:34:52.108Z,17.75
2018-01-27T16:37:20.443Z,16.83
2018-01-27T16:39:48.756Z,17.53
2018-01-27T16:42:17.735Z,14.15
2018-01-27T16:44:46.058Z,9.88
2018-01-27T16:47:14.395Z,15.25
2018-01-27T16:49:42.715Z,9.97
2018-01-27T16:52:11.057Z,18.13
2018-01-27T16:54:39.388Z,10.57
2018-01-27T16:57:07.743Z,10.15
2018-01-27T16:59:36.058Z,10.37
2018-01-27T17:02:04.390Z,8.42
2018-01-27T17:04:32.695Z,10.88
2018-01-27T17:07:01.028Z,11.33
2018-01-27T17:09:29.330Z,9.70
2018-01-27T17:11:57.671Z,8.88
2018-01-27T17:14:25.985Z,8.93
2018-01-27T17:16:54.283Z,8.65
2018-01-27T17:19:22.622Z,8.58
2018-01-27T17:21:50.937Z,9.33
2018-01-27T17:24:19.272Z,7.75
2018-01-27T17:26:47.582Z,8.50
2018-01-27T17:29:15.920Z,9.35
2018-01-27T17:31:44.242Z,10.13
2018-01-27T17:34:12.571Z,9.42
2018-01-27T17:36:40.880Z,9.97
2018-01-27T17:39:09.251Z,8.93
2018-01-27T17:41:37.553Z,9.58
2018-01-27T17:44:05.887Z,9.17
2018-01-27T17:46:34.206Z,10.22
2018-01-27T17:49:02.539Z,8.92
2018-01-27T17:51:30.857Z,8.97
2018-01-27T17:53:59.195Z,9.17
2018-01-27T17:56:27.513Z,8.72
2018-01-27T17:58:55.838Z,8.17
2018-01-27T18:01:24.173Z,10.02
2018-01-27T18:03:52.543Z,10.33
2018-01-27T18:06:20.851Z,8.43
2018-01-27T18:08:49.190Z,9.08
2018-01-27T18:11:17.497Z,9.15
2018-01-27T18:13:45.831Z,9.73
2018-01-27T18:16:13.374Z,9.72
2018-01-27T18:18:41.725Z,9.62
2018-01-27T18:21:10.039Z,9.28
2018-01-27T18:23:38.367Z,9.60
2018-01-27T18:26:06.680Z,12.57
2018-01-27T18:28:35.014Z,12.62
2018-01-27T18:31:03.325Z,9.43
2018-01-27T18:33:31.684Z,9.80
2018-01-27T18:35:59.998Z,9.23
2018-01-27T18:38:27.571Z,8.48
2018-01-27T18:40:55.884Z,8.70
2018-01-27T18:43:24.223Z,9.38
2018-01-27T18:45:52.531Z,9.47
2018-01-27T18:48:20.861Z,8.70
2018-01-27T18:50:49.198Z,9.45
2018-01-27T18:53:17.512Z,8.57
2018-01-27T18:55:45.848Z,8.50
2018-01-27T18:58:14.168Z,8.73
2018-01-27T19:00:42.498Z,8.15
2018-01-27T19:03:10.802Z,7.47
2018-01-27T19:05:39.165Z,8.88
2018-01-27T19:08:07.462Z,9.98
2018-01-27T19:10:35.798Z,8.63
2018-01-27T19:13:04.109Z,9.77
2018-01-27T19:15:32.447Z,9.47
2018-01-27T19:18:00.787Z,9.88
2018-01-27T19:20:29.122Z,9.60
2018-01-27T19:22:57.483Z,9.60
2018-01-27T19:25:25.824Z,8.37
2018-01-27T19:27:54.142Z,8.60
2018-01-27T19:30:22.475Z,9.17
2018-01-27T19:32:50.786Z,8.55
2018-01-27T19:35:19.129Z,9.53
2018-01-27T19:37:47.443Z,8.42
2018-01-27T19:40:15.810Z,7.88
2018-01-27T19:42:44.114Z,8.08
2018-01-27T19:45:12.654Z,8.93
2018-01-27T19:47:40.968Z,7.12
2018-01-27T19:50:09.306Z,8.98
2018-01-27T19:52:37.623Z,10.98
2018-01-27T19:55:05.962Z,12.13
2018-01-27T19:57:34.319Z,14.00
2018-01-27T20:00:02.664Z,12.48
2018-01-27T20:02:31.067Z,9.38
2018-01-27T20:04:59.414Z,9.85
2018-01-27T20:07:27.732Z,11.57
2018-01-27T20:09:56.091Z,9.98
2018-01-27T20:12:24.423Z,10.40
2018-01-27T20:14:52.762Z,15.98
2018-01-27T20:17:21.089Z,8.10
2018-01-27T20:19:49.402Z,9.30
2018-01-27T20:22:17.788Z,23.05
2018-01-27T20:24:46.112Z,12.97
2018-01-27T20:27:14.447Z,7.17
2018-01-27T20:29:42.772Z,17.22
2018-01-27T20:32:11.144Z,12.42
2018-01-27T20:34:39.475Z,9.25
2018-01-27T20:37:07.869Z,8.98
2018-01-27T20:39:36.204Z,8.08
2018-01-27T20:42:04.539Z,7.28
2018-01-27T20:44:33.141Z,7.93
2018-01-27T20:47:01.479Z,7.05
2018-01-27T20:49:29.795Z,7.17
2018-01-27T20:51:58.134Z,7.58
2018-01-27T20:54:26.454Z,7.03
2018-01-27T20:56:54.785Z,7.53
2018-01-27T20:59:23.105Z,6.72
2018-01-27T21:01:51.447Z,7.15
2018-01-27T21:04:19.752Z,5.98
2018-01-27T21:06:48.086Z,7.48
2018-01-27T21:09:16.396Z,7.95
2018-01-27T21:11:44.767Z,7.17
2018-01-27T21:14:13.078Z,6.00
2018-01-27T21:16:41.412Z,7.43
2018-01-27T21:19:09.724Z,7.10
2018-01-27T21:21:38.101Z,7.13
2018-01-27T21:24:06.418Z,7.48
2018-01-27T21:26:34.755Z,6.27
2018-01-27T21:29:03.076Z,6.90
2018-01-27T21:31:31.407Z,6.80
2018-01-27T21:33:59.722Z,7.07
2018-01-27T21:36:28.069Z,7.93
2018-01-27T21:38:56.386Z,7.67
2018-01-27T21:41:24.719Z,6.48
2018-01-27T21:43:52.262Z,6.57
2018-01-27T21:46:20.595Z,8.73
2018-01-27T21:48:48.914Z,6.45
2018-01-27T21:51:17.247Z,7.78
2018-01-27T21:53:45.559Z,7.15
2018-01-27T21:56:13.897Z,6.85
2018-01-27T21:58:42.217Z,7.02
2018-01-27T22:01:10.530Z,6.75
2018-01-27T22:03:38.858Z,7.67
2018-01-27T22:06:07.173Z,6.65
2018-01-27T22:08:35.515Z,7.40
2018-01-27T22:11:03.837Z,7.63
2018-01-27T22:13:32.174Z,7.48
2018-01-27T22:16:00.488Z,6.85
2018-01-27T22:18:28.827Z,7.05
2018-01-27T22:20:57.133Z,7.00
2018-01-27T22:23:25.463Z,6.98
2018-01-27T22:25:53.780Z,6.87
2018-01-27T22:28:22.119Z,6.32
2018-01-27T22:30:50.443Z,7.23
2018-01-27T22:33:18.775Z,7.67
2018-01-27T22:35:47.082Z,7.72
2018-01-27T22:38:15.419Z,6.60
2018-01-27T22:40:43.734Z,6.78
2018-01-27T22:43:12.088Z,8.77
2018-01-27T22:45:40.399Z,6.75
2018-01-27T22:48:08.730Z,8.57
2018-01-27T22:50:37.035Z,8.93
2018-01-27T22:53:05.365Z,9.10
2018-01-27T22:55:33.679Z,8.67
2018-01-27T22:58:02.010Z,9.83
2018-01-27T23:00:30.322Z,8.58
2018-01-27T23:02:58.660Z,7.87
2018-01-27T23:05:26.982Z,8.67
2018-01-27T23:07:55.321Z,9.68
2018-01-27T23:10:23.630Z,11.67
2018-01-27T23:12:51.974Z,8.63
2018-01-27T23:15:20.288Z,14.77
2018-01-27T23:17:48.636Z,9.43
2018-01-27T23:20:16.942Z,9.35
2018-01-27T23:22:45.274Z,9.70
2018-01-27T23:25:13.593Z,10.57
2018-01-27T23:27:41.947Z,9.67
2018-01-27T23:30:10.254Z,9.37
2018-01-27T23:32:38.589Z,8.50
2018-01-27T23:35:06.898Z,9.75
2018-01-27T23:37:35.239Z,10.13
2018-01-27T23:40:03.566Z,10.18
2018-01-27T23:42:31.888Z,9.88
2018-01-27T23:45:00.233Z,10.65
2018-01-27T23:47:28.549Z,9.30
2018-01-27T23:49:56.875Z,9.27
2018-01-27T23:52:25.183Z,12.67
2018-01-27T23:54:53.521Z,12.60
2018-01-27T23:57:21.843Z,9.30
2018-01-27T23:59:50.179Z,10.30
